sensor_id;sensor_type;location;lat;lon;timestamp;P1;durP1;ratioP1;P2;durP2;ratioP2
6336;SDS011;3201;49.962;11.618;2023-02-01T00:02:23;0.70;;;0.60;;
6336;SDS011;3201;49.962;11.618;2023-02-01T00:04:48;0.73;;;0.60;;
6336;SDS011;3201;49.962;11.618;2023-02-01T00:07:14;0.70;;;0.60;;
6336;SDS011;3201;49.962;11.618;2023-02-01T00:09:39;1.47;;;0.83;;
6336;SDS011;3201;49.962;11.618;2023-02-01T00:12:04;1.23;;;0.80;;
6336;SDS011;3201;49.962;11.618;2023-02-01T00:14:30;1.40;;;0.80;;
6336;SDS011;3201;49.962;11.618;2023-02-01T00:16:55;1.07;;;0.60;;
6336;SDS011;3201;49.962;11.618;2023-02-01T00:19:20;1.27;;;1.00;;
6336;SDS011;3201;49.962;11.618;2023-02-01T00:21:46;1.10;;;0.90;;
6336;SDS011;3201;49.962;11.618;2023-02-01T00:24:11;1.53;;;0.80;;
6336;SDS011;3201;49.962;11.618;2023-02-01T00:26:39;0.97;;;0.87;;
6336;SDS011;3201;49.962;11.618;2023-02-01T00:29:07;1.03;;;0.73;;
6336;SDS011;3201;49.962;11.618;2023-02-01T00:31:35;1.07;;;0.80;;
6336;SDS011;3201;49.962;11.618;2023-02-01T00:34:01;0.80;;;0.77;;
6336;SDS011;3201;49.962;11.618;2023-02-01T00:36:26;1.10;;;0.90;;
6336;SDS011;3201;49.962;11.618;2023-02-01T00:38:52;0.87;;;0.60;;
6336;SDS011;3201;49.962;11.618;2023-02-01T00:41:18;1.07;;;0.60;;
6336;SDS011;3201;49.962;11.618;2023-02-01T00:43:46;1.10;;;0.80;;
6336;SDS011;3201;49.962;11.618;2023-02-01T00:46:12;1.37;;;0.97;;
6336;SDS011;3201;49.962;11.618;2023-02-01T00:48:37;1.60;;;1.07;;
6336;SDS011;3201;49.962;11.618;2023-02-01T00:51:04;1.40;;;0.77;;
6336;SDS011;3201;49.962;11.618;2023-02-01T00:53:31;1.10;;;0.83;;
6336;SDS011;3201;49.962;11.618;2023-02-01T00:55:56;0.90;;;0.73;;
6336;SDS011;3201;49.962;11.618;2023-02-01T00:58:22;2.30;;;0.90;;
6336;SDS011;3201;49.962;11.618;2023-02-01T01:00:49;1.53;;;0.80;;
6336;SDS011;3201;49.962;11.618;2023-02-01T01:03:14;0.90;;;0.73;;
6336;SDS011;3201;49.962;11.618;2023-02-01T01:05:44;0.97;;;0.73;;
6336;SDS011;3201;49.962;11.618;2023-02-01T01:08:10;0.70;;;0.70;;
6336;SDS011;3201;49.962;11.618;2023-02-01T01:10:35;2.73;;;0.73;;
6336;SDS011;3201;49.962;11.618;2023-02-01T01:13:00;1.63;;;1.03;;
6336;SDS011;3201;49.962;11.618;2023-02-01T01:15:26;0.93;;;0.60;;
6336;SDS011;3201;49.962;11.618;2023-02-01T01:17:51;0.70;;;0.70;;
6336;SDS011;3201;49.962;11.618;2023-02-01T01:20:16;0.70;;;0.60;;
6336;SDS011;3201;49.962;11.618;2023-02-01T01:22:42;0.83;;;0.67;;
6336;SDS011;3201;49.962;11.618;2023-02-01T01:25:07;0.97;;;0.90;;
6336;SDS011;3201;49.962;11.618;2023-02-01T01:27:32;0.93;;;0.83;;
6336;SDS011;3201;49.962;11.618;2023-02-01T01:29:58;1.00;;;0.60;;
6336;SDS011;3201;49.962;11.618;2023-02-01T01:32:23;0.93;;;0.73;;
6336;SDS011;3201;49.962;11.618;2023-02-01T01:34:48;1.37;;;0.80;;
6336;SDS011;3201;49.962;11.618;2023-02-01T01:37:13;1.00;;;0.90;;
6336;SDS011;3201;49.962;11.618;2023-02-01T01:39:39;1.10;;;0.70;;
6336;SDS011;3201;49.962;11.618;2023-02-01T01:42:04;0.70;;;0.60;;
6336;SDS011;3201;49.962;11.618;2023-02-01T01:45:03;1.03;;;0.93;;
6336;SDS011;3201;49.962;11.618;2023-02-01T01:47:24;0.83;;;0.67;;
6336;SDS011;3201;49.962;11.618;2023-02-01T01:49:50;1.03;;;0.80;;
6336;SDS011;3201;49.962;11.618;2023-02-01T01:52:16;0.80;;;0.60;;
6336;SDS011;3201;49.962;11.618;2023-02-01T01:54:42;1.47;;;0.60;;
6336;SDS011;3201;49.962;11.618;2023-02-01T01:57:14;0.80;;;0.60;;
6336;SDS011;3201;49.962;11.618;2023-02-01T01:59:46;2.50;;;0.60;;
6336;SDS011;3201;49.962;11.618;2023-02-01T02:02:13;0.60;;;0.60;;
6336;SDS011;3201;49.962;11.618;2023-02-01T02:04:38;0.93;;;0.80;;
6336;SDS011;3201;49.962;11.618;2023-02-01T02:07:04;0.97;;;0.70;;
6336;SDS011;3201;49.962;11.618;2023-02-01T02:09:33;0.93;;;0.73;;
6336;SDS011;3201;49.962;11.618;2023-02-01T02:11:59;1.67;;;0.63;;
6336;SDS011;3201;49.962;11.618;2023-02-01T02:14:24;1.13;;;0.53;;
6336;SDS011;3201;49.962;11.618;2023-02-01T02:26:34;0.90;;;0.70;;
6336;SDS011;3201;49.962;11.618;2023-02-01T02:30:02;0.70;;;0.40;;
6336;SDS011;3201;49.962;11.618;2023-02-01T02:40:37;0.90;;;0.40;;
6336;SDS011;3201;49.962;11.618;2023-02-01T02:43:11;0.80;;;0.40;;
6336;SDS011;3201;49.962;11.618;2023-02-01T02:46:37;0.70;;;0.67;;
6336;SDS011;3201;49.962;11.618;2023-02-01T02:49:20;0.60;;;0.43;;
6336;SDS011;3201;49.962;11.618;2023-02-01T02:51:50;0.60;;;0.40;;
6336;SDS011;3201;49.962;11.618;2023-02-01T02:54:38;1.10;;;0.60;;
6336;SDS011;3201;49.962;11.618;2023-02-01T02:57:18;1.20;;;0.77;;
6336;SDS011;3201;49.962;11.618;2023-02-01T03:00:07;0.50;;;0.50;;
6336;SDS011;3201;49.962;11.618;2023-02-01T03:02:54;1.27;;;0.90;;
6336;SDS011;3201;49.962;11.618;2023-02-01T03:05:42;1.23;;;1.00;;
6336;SDS011;3201;49.962;11.618;2023-02-01T03:08:17;0.80;;;0.50;;
6336;SDS011;3201;49.962;11.618;2023-02-01T03:13:17;1.40;;;0.60;;
6336;SDS011;3201;49.962;11.618;2023-02-01T03:15:52;1.53;;;0.70;;
6336;SDS011;3201;49.962;11.618;2023-02-01T03:18:22;1.23;;;0.70;;
6336;SDS011;3201;49.962;11.618;2023-02-01T03:20:51;0.77;;;0.50;;
6336;SDS011;3201;49.962;11.618;2023-02-01T03:23:18;0.70;;;0.53;;
6336;SDS011;3201;49.962;11.618;2023-02-01T03:25:46;1.27;;;0.60;;
6336;SDS011;3201;49.962;11.618;2023-02-01T03:28:12;1.33;;;0.73;;
6336;SDS011;3201;49.962;11.618;2023-02-01T03:30:40;0.80;;;0.57;;
6336;SDS011;3201;49.962;11.618;2023-02-01T03:33:10;0.77;;;0.73;;
6336;SDS011;3201;49.962;11.618;2023-02-01T03:35:54;0.60;;;0.60;;
6336;SDS011;3201;49.962;11.618;2023-02-01T03:43:51;1.03;;;0.60;;
6336;SDS011;3201;49.962;11.618;2023-02-01T03:46:23;1.40;;;0.87;;
6336;SDS011;3201;49.962;11.618;2023-02-01T03:48:52;2.53;;;0.77;;
6336;SDS011;3201;49.962;11.618;2023-02-01T03:51:19;0.70;;;0.70;;
6336;SDS011;3201;49.962;11.618;2023-02-01T03:53:45;0.57;;;0.50;;
6336;SDS011;3201;49.962;11.618;2023-02-01T03:56:13;1.43;;;0.70;;
6336;SDS011;3201;49.962;11.618;2023-02-01T03:58:40;1.03;;;0.70;;
6336;SDS011;3201;49.962;11.618;2023-02-01T04:01:05;1.10;;;0.50;;
6336;SDS011;3201;49.962;11.618;2023-02-01T04:03:30;1.27;;;0.70;;
6336;SDS011;3201;49.962;11.618;2023-02-01T04:05:57;1.73;;;0.77;;
6336;SDS011;3201;49.962;11.618;2023-02-01T04:08:22;0.83;;;0.60;;
6336;SDS011;3201;49.962;11.618;2023-02-01T04:10:48;1.13;;;1.00;;
6336;SDS011;3201;49.962;11.618;2023-02-01T04:13:14;0.83;;;0.50;;
6336;SDS011;3201;49.962;11.618;2023-02-01T04:15:40;1.10;;;0.70;;
6336;SDS011;3201;49.962;11.618;2023-02-01T04:18:05;0.80;;;0.63;;
6336;SDS011;3201;49.962;11.618;2023-02-01T04:20:30;0.93;;;0.70;;
6336;SDS011;3201;49.962;11.618;2023-02-01T04:22:56;0.70;;;0.70;;
6336;SDS011;3201;49.962;11.618;2023-02-01T04:25:21;1.10;;;0.60;;
6336;SDS011;3201;49.962;11.618;2023-02-01T04:27:47;1.27;;;0.90;;
6336;SDS011;3201;49.962;11.618;2023-02-01T04:30:12;0.80;;;0.80;;
6336;SDS011;3201;49.962;11.618;2023-02-01T04:32:38;1.40;;;0.60;;
6336;SDS011;3201;49.962;11.618;2023-02-01T04:35:04;0.70;;;0.53;;
6336;SDS011;3201;49.962;11.618;2023-02-01T04:37:29;0.80;;;0.47;;
6336;SDS011;3201;49.962;11.618;2023-02-01T04:39:55;0.60;;;0.50;;
6336;SDS011;3201;49.962;11.618;2023-02-01T04:42:20;0.90;;;0.50;;
6336;SDS011;3201;49.962;11.618;2023-02-01T04:44:46;0.60;;;0.50;;
6336;SDS011;3201;49.962;11.618;2023-02-01T04:47:11;0.93;;;0.57;;
6336;SDS011;3201;49.962;11.618;2023-02-01T04:49:36;1.00;;;0.70;;
6336;SDS011;3201;49.962;11.618;2023-02-01T04:52:02;0.67;;;0.53;;
6336;SDS011;3201;49.962;11.618;2023-02-01T04:54:27;1.33;;;0.67;;
6336;SDS011;3201;49.962;11.618;2023-02-01T04:56:53;1.00;;;0.63;;
6336;SDS011;3201;49.962;11.618;2023-02-01T04:59:18;0.87;;;0.77;;
6336;SDS011;3201;49.962;11.618;2023-02-01T05:01:43;0.70;;;0.43;;
6336;SDS011;3201;49.962;11.618;2023-02-01T05:04:09;0.50;;;0.40;;
6336;SDS011;3201;49.962;11.618;2023-02-01T05:06:34;0.80;;;0.53;;
6336;SDS011;3201;49.962;11.618;2023-02-01T05:08:59;1.00;;;0.90;;
6336;SDS011;3201;49.962;11.618;2023-02-01T05:11:24;1.47;;;0.80;;
6336;SDS011;3201;49.962;11.618;2023-02-01T05:14:10;1.03;;;0.50;;
6336;SDS011;3201;49.962;11.618;2023-02-01T05:16:35;1.90;;;0.60;;
6336;SDS011;3201;49.962;11.618;2023-02-01T05:19:00;0.70;;;0.60;;
6336;SDS011;3201;49.962;11.618;2023-02-01T05:21:26;0.90;;;0.57;;
6336;SDS011;3201;49.962;11.618;2023-02-01T05:23:51;1.10;;;0.63;;
6336;SDS011;3201;49.962;11.618;2023-02-01T05:26:37;0.60;;;0.40;;
6336;SDS011;3201;49.962;11.618;2023-02-01T05:29:03;1.40;;;0.53;;
6336;SDS011;3201;49.962;11.618;2023-02-01T05:31:29;0.93;;;0.63;;
6336;SDS011;3201;49.962;11.618;2023-02-01T05:33:54;1.10;;;0.57;;
6336;SDS011;3201;49.962;11.618;2023-02-01T05:36:19;1.33;;;0.50;;
6336;SDS011;3201;49.962;11.618;2023-02-01T05:38:45;0.50;;;0.40;;
6336;SDS011;3201;49.962;11.618;2023-02-01T05:41:10;0.50;;;0.40;;
6336;SDS011;3201;49.962;11.618;2023-02-01T05:43:35;0.60;;;0.50;;
6336;SDS011;3201;49.962;11.618;2023-02-01T05:46:01;1.20;;;0.63;;
6336;SDS011;3201;49.962;11.618;2023-02-01T05:48:26;1.17;;;0.60;;
6336;SDS011;3201;49.962;11.618;2023-02-01T05:50:51;0.93;;;0.60;;
6336;SDS011;3201;49.962;11.618;2023-02-01T05:53:17;0.73;;;0.63;;
6336;SDS011;3201;49.962;11.618;2023-02-01T05:55:42;2.00;;;0.80;;
6336;SDS011;3201;49.962;11.618;2023-02-01T05:58:07;1.00;;;0.70;;
6336;SDS011;3201;49.962;11.618;2023-02-01T06:00:33;0.93;;;0.40;;
6336;SDS011;3201;49.962;11.618;2023-02-01T06:02:58;1.70;;;0.70;;
6336;SDS011;3201;49.962;11.618;2023-02-01T06:05:23;1.00;;;0.53;;
6336;SDS011;3201;49.962;11.618;2023-02-01T06:07:49;0.70;;;0.43;;
6336;SDS011;3201;49.962;11.618;2023-02-01T06:10:16;0.83;;;0.70;;
6336;SDS011;3201;49.962;11.618;2023-02-01T06:12:42;0.77;;;0.50;;
6336;SDS011;3201;49.962;11.618;2023-02-01T06:15:07;1.67;;;0.60;;
6336;SDS011;3201;49.962;11.618;2023-02-01T06:17:33;0.70;;;0.50;;
6336;SDS011;3201;49.962;11.618;2023-02-01T06:19:58;0.87;;;0.70;;
6336;SDS011;3201;49.962;11.618;2023-02-01T06:22:23;0.73;;;0.60;;
6336;SDS011;3201;49.962;11.618;2023-02-01T06:24:49;1.43;;;0.60;;
6336;SDS011;3201;49.962;11.618;2023-02-01T06:27:14;1.57;;;0.63;;
6336;SDS011;3201;49.962;11.618;2023-02-01T06:29:40;1.80;;;0.70;;
6336;SDS011;3201;49.962;11.618;2023-02-01T06:32:05;1.30;;;0.50;;
6336;SDS011;3201;49.962;11.618;2023-02-01T06:34:31;0.70;;;0.40;;
6336;SDS011;3201;49.962;11.618;2023-02-01T06:36:56;1.70;;;0.70;;
6336;SDS011;3201;49.962;11.618;2023-02-01T06:39:21;0.60;;;0.53;;
6336;SDS011;3201;49.962;11.618;2023-02-01T06:41:48;1.23;;;0.50;;
6336;SDS011;3201;49.962;11.618;2023-02-01T06:44:13;0.90;;;0.50;;
6336;SDS011;3201;49.962;11.618;2023-02-01T06:46:39;1.43;;;0.63;;
6336;SDS011;3201;49.962;11.618;2023-02-01T06:49:04;0.63;;;0.50;;
6336;SDS011;3201;49.962;11.618;2023-02-01T06:51:30;1.43;;;0.80;;
6336;SDS011;3201;49.962;11.618;2023-02-01T06:53:55;0.67;;;0.50;;
6336;SDS011;3201;49.962;11.618;2023-02-01T06:56:21;2.20;;;0.60;;
6336;SDS011;3201;49.962;11.618;2023-02-01T06:58:47;1.83;;;0.73;;
6336;SDS011;3201;49.962;11.618;2023-02-01T07:01:12;1.53;;;0.60;;
6336;SDS011;3201;49.962;11.618;2023-02-01T07:03:38;1.57;;;0.67;;
6336;SDS011;3201;49.962;11.618;2023-02-01T07:06:04;1.47;;;0.70;;
6336;SDS011;3201;49.962;11.618;2023-02-01T07:08:31;1.33;;;0.50;;
6336;SDS011;3201;49.962;11.618;2023-02-01T07:11:00;0.90;;;0.50;;
6336;SDS011;3201;49.962;11.618;2023-02-01T07:13:27;1.63;;;0.67;;
6336;SDS011;3201;49.962;11.618;2023-02-01T07:15:52;1.67;;;0.70;;
6336;SDS011;3201;49.962;11.618;2023-02-01T07:18:17;1.23;;;0.67;;
6336;SDS011;3201;49.962;11.618;2023-02-01T07:20:42;2.53;;;1.00;;
6336;SDS011;3201;49.962;11.618;2023-02-01T07:23:09;1.43;;;0.70;;
6336;SDS011;3201;49.962;11.618;2023-02-01T07:25:35;0.60;;;0.50;;
6336;SDS011;3201;49.962;11.618;2023-02-01T07:28:00;1.20;;;0.63;;
6336;SDS011;3201;49.962;11.618;2023-02-01T07:30:25;1.40;;;0.70;;
6336;SDS011;3201;49.962;11.618;2023-02-01T07:32:51;1.80;;;0.70;;
6336;SDS011;3201;49.962;11.618;2023-02-01T07:35:16;0.80;;;0.70;;
6336;SDS011;3201;49.962;11.618;2023-02-01T07:37:41;1.07;;;0.80;;
6336;SDS011;3201;49.962;11.618;2023-02-01T07:40:07;2.37;;;0.97;;
6336;SDS011;3201;49.962;11.618;2023-02-01T07:42:33;0.90;;;0.60;;
6336;SDS011;3201;49.962;11.618;2023-02-01T07:44:59;0.87;;;0.40;;
6336;SDS011;3201;49.962;11.618;2023-02-01T07:47:24;1.07;;;0.67;;
6336;SDS011;3201;49.962;11.618;2023-02-01T07:49:49;1.13;;;0.70;;
6336;SDS011;3201;49.962;11.618;2023-02-01T07:52:14;1.20;;;0.53;;
6336;SDS011;3201;49.962;11.618;2023-02-01T07:54:41;1.40;;;0.67;;
6336;SDS011;3201;49.962;11.618;2023-02-01T07:57:06;1.43;;;0.80;;
6336;SDS011;3201;49.962;11.618;2023-02-01T07:59:33;1.87;;;0.80;;
6336;SDS011;3201;49.962;11.618;2023-02-01T08:01:59;0.70;;;0.50;;
6336;SDS011;3201;49.962;11.618;2023-02-01T08:04:24;1.33;;;0.87;;
6336;SDS011;3201;49.962;11.618;2023-02-01T08:06:49;1.40;;;0.60;;
6336;SDS011;3201;49.962;11.618;2023-02-01T08:09:15;1.10;;;0.70;;
6336;SDS011;3201;49.962;11.618;2023-02-01T08:11:40;1.67;;;0.93;;
6336;SDS011;3201;49.962;11.618;2023-02-01T08:14:05;2.50;;;0.87;;
6336;SDS011;3201;49.962;11.618;2023-02-01T08:16:31;1.63;;;0.60;;
6336;SDS011;3201;49.962;11.618;2023-02-01T08:18:59;1.80;;;0.77;;
6336;SDS011;3201;49.962;11.618;2023-02-01T08:21:25;1.57;;;0.73;;
6336;SDS011;3201;49.962;11.618;2023-02-01T08:24:01;0.70;;;0.47;;
6336;SDS011;3201;49.962;11.618;2023-02-01T08:26:27;1.77;;;0.83;;
6336;SDS011;3201;49.962;11.618;2023-02-01T08:28:54;0.93;;;0.60;;
6336;SDS011;3201;49.962;11.618;2023-02-01T08:31:21;1.00;;;0.50;;
6336;SDS011;3201;49.962;11.618;2023-02-01T08:33:49;1.90;;;0.63;;
6336;SDS011;3201;49.962;11.618;2023-02-01T08:36:15;2.53;;;0.93;;
6336;SDS011;3201;49.962;11.618;2023-02-01T08:38:41;1.17;;;0.60;;
6336;SDS011;3201;49.962;11.618;2023-02-01T08:41:07;1.30;;;0.63;;
6336;SDS011;3201;49.962;11.618;2023-02-01T08:43:34;1.20;;;0.60;;
6336;SDS011;3201;49.962;11.618;2023-02-01T08:45:59;0.80;;;0.53;;
6336;SDS011;3201;49.962;11.618;2023-02-01T08:48:24;1.10;;;0.60;;
6336;SDS011;3201;49.962;11.618;2023-02-01T08:50:50;1.80;;;0.60;;
6336;SDS011;3201;49.962;11.618;2023-02-01T08:53:15;1.50;;;0.80;;
6336;SDS011;3201;49.962;11.618;2023-02-01T08:55:40;2.53;;;0.97;;
6336;SDS011;3201;49.962;11.618;2023-02-01T08:58:06;2.17;;;0.80;;
6336;SDS011;3201;49.962;11.618;2023-02-01T09:00:31;2.10;;;0.60;;
6336;SDS011;3201;49.962;11.618;2023-02-01T09:02:56;0.80;;;0.50;;
6336;SDS011;3201;49.962;11.618;2023-02-01T09:05:22;1.73;;;0.90;;
6336;SDS011;3201;49.962;11.618;2023-02-01T09:07:51;1.20;;;0.67;;
6336;SDS011;3201;49.962;11.618;2023-02-01T09:10:17;3.17;;;0.87;;
6336;SDS011;3201;49.962;11.618;2023-02-01T09:12:42;0.70;;;0.60;;
6336;SDS011;3201;49.962;11.618;2023-02-01T09:15:07;1.73;;;0.60;;
6336;SDS011;3201;49.962;11.618;2023-02-01T09:17:33;2.17;;;0.90;;
6336;SDS011;3201;49.962;11.618;2023-02-01T09:19:59;2.57;;;0.50;;
6336;SDS011;3201;49.962;11.618;2023-02-01T09:22:24;1.37;;;0.60;;
6336;SDS011;3201;49.962;11.618;2023-02-01T09:24:49;4.27;;;1.07;;
6336;SDS011;3201;49.962;11.618;2023-02-01T09:27:15;1.33;;;0.70;;
6336;SDS011;3201;49.962;11.618;2023-02-01T09:29:40;1.40;;;0.90;;
6336;SDS011;3201;49.962;11.618;2023-02-01T09:32:05;1.10;;;0.80;;
6336;SDS011;3201;49.962;11.618;2023-02-01T09:34:31;1.67;;;1.17;;
6336;SDS011;3201;49.962;11.618;2023-02-01T09:36:57;0.80;;;0.70;;
6336;SDS011;3201;49.962;11.618;2023-02-01T09:39:22;2.27;;;0.80;;
6336;SDS011;3201;49.962;11.618;2023-02-01T09:41:51;2.03;;;0.90;;
6336;SDS011;3201;49.962;11.618;2023-02-01T09:47:25;1.47;;;0.70;;
6336;SDS011;3201;49.962;11.618;2023-02-01T09:49:54;1.60;;;1.00;;
6336;SDS011;3201;49.962;11.618;2023-02-01T09:52:25;1.20;;;0.80;;
6336;SDS011;3201;49.962;11.618;2023-02-01T09:54:55;2.90;;;1.07;;
6336;SDS011;3201;49.962;11.618;2023-02-01T09:57:40;0.97;;;0.57;;
6336;SDS011;3201;49.962;11.618;2023-02-01T10:00:18;1.20;;;0.70;;
6336;SDS011;3201;49.962;11.618;2023-02-01T10:02:46;1.63;;;0.70;;
6336;SDS011;3201;49.962;11.618;2023-02-01T10:05:12;2.30;;;1.00;;
6336;SDS011;3201;49.962;11.618;2023-02-01T10:10:10;3.37;;;0.80;;
6336;SDS011;3201;49.962;11.618;2023-02-01T10:12:45;1.67;;;0.90;;
6336;SDS011;3201;49.962;11.618;2023-02-01T10:15:24;1.73;;;0.80;;
6336;SDS011;3201;49.962;11.618;2023-02-01T10:18:13;2.97;;;0.77;;
6336;SDS011;3201;49.962;11.618;2023-02-01T10:28:36;1.70;;;0.90;;
6336;SDS011;3201;49.962;11.618;2023-02-01T10:31:02;2.70;;;0.93;;
6336;SDS011;3201;49.962;11.618;2023-02-01T10:36:01;3.33;;;1.37;;
6336;SDS011;3201;49.962;11.618;2023-02-01T10:38:33;1.73;;;0.90;;
6336;SDS011;3201;49.962;11.618;2023-02-01T10:41:01;3.67;;;0.80;;
6336;SDS011;3201;49.962;11.618;2023-02-01T10:43:28;2.50;;;0.97;;
6336;SDS011;3201;49.962;11.618;2023-02-01T10:45:53;1.73;;;0.70;;
6336;SDS011;3201;49.962;11.618;2023-02-01T10:48:18;4.30;;;0.80;;
6336;SDS011;3201;49.962;11.618;2023-02-01T10:50:53;1.30;;;0.60;;
6336;SDS011;3201;49.962;11.618;2023-02-01T10:53:25;1.13;;;0.90;;
6336;SDS011;3201;49.962;11.618;2023-02-01T10:55:54;3.07;;;1.00;;
6336;SDS011;3201;49.962;11.618;2023-02-01T11:01:00;2.20;;;1.27;;
6336;SDS011;3201;49.962;11.618;2023-02-01T11:03:44;4.17;;;1.13;;
6336;SDS011;3201;49.962;11.618;2023-02-01T11:06:49;3.13;;;1.10;;
6336;SDS011;3201;49.962;11.618;2023-02-01T11:11:32;2.00;;;0.93;;
6336;SDS011;3201;49.962;11.618;2023-02-01T11:14:00;3.10;;;1.10;;
6336;SDS011;3201;49.962;11.618;2023-02-01T11:16:33;4.13;;;1.20;;
6336;SDS011;3201;49.962;11.618;2023-02-01T11:19:00;1.63;;;0.87;;
6336;SDS011;3201;49.962;11.618;2023-02-01T11:21:25;2.40;;;0.97;;
6336;SDS011;3201;49.962;11.618;2023-02-01T11:23:51;1.50;;;0.70;;
6336;SDS011;3201;49.962;11.618;2023-02-01T11:26:21;1.20;;;0.90;;
6336;SDS011;3201;49.962;11.618;2023-02-01T11:28:51;4.53;;;0.93;;
6336;SDS011;3201;49.962;11.618;2023-02-01T11:31:36;3.70;;;1.10;;
6336;SDS011;3201;49.962;11.618;2023-02-01T11:34:07;3.90;;;1.00;;
6336;SDS011;3201;49.962;11.618;2023-02-01T11:36:34;1.90;;;1.13;;
6336;SDS011;3201;49.962;11.618;2023-02-01T11:39:18;2.70;;;1.20;;
6336;SDS011;3201;49.962;11.618;2023-02-01T11:42:04;2.43;;;0.93;;
6336;SDS011;3201;49.962;11.618;2023-02-01T11:44:38;1.70;;;0.73;;
6336;SDS011;3201;49.962;11.618;2023-02-01T11:47:41;2.33;;;1.00;;
6336;SDS011;3201;49.962;11.618;2023-02-01T11:49:52;1.63;;;0.93;;
6336;SDS011;3201;49.962;11.618;2023-02-01T11:52:24;3.27;;;1.20;;
6336;SDS011;3201;49.962;11.618;2023-02-01T11:56:04;1.10;;;0.60;;
6336;SDS011;3201;49.962;11.618;2023-02-01T11:58:04;2.17;;;1.00;;
6336;SDS011;3201;49.962;11.618;2023-02-01T12:01:40;2.70;;;1.10;;
6336;SDS011;3201;49.962;11.618;2023-02-01T12:03:37;2.07;;;0.90;;
6336;SDS011;3201;49.962;11.618;2023-02-01T12:07:04;1.60;;;0.70;;
6336;SDS011;3201;49.962;11.618;2023-02-01T12:20:19;3.80;;;1.50;;
6336;SDS011;3201;49.962;11.618;2023-02-01T12:22:54;4.50;;;1.13;;
6336;SDS011;3201;49.962;11.618;2023-02-01T12:25:30;4.73;;;1.00;;
6336;SDS011;3201;49.962;11.618;2023-02-01T12:33:16;2.10;;;1.10;;
6336;SDS011;3201;49.962;11.618;2023-02-01T12:38:54;2.77;;;0.97;;
6336;SDS011;3201;49.962;11.618;2023-02-01T12:41:45;1.63;;;0.93;;
6336;SDS011;3201;49.962;11.618;2023-02-01T12:44:18;3.17;;;1.03;;
6336;SDS011;3201;49.962;11.618;2023-02-01T12:46:51;3.70;;;1.13;;
6336;SDS011;3201;49.962;11.618;2023-02-01T12:49:20;4.83;;;1.33;;
6336;SDS011;3201;49.962;11.618;2023-02-01T12:51:54;3.50;;;0.80;;
6336;SDS011;3201;49.962;11.618;2023-02-01T12:54:29;2.50;;;0.80;;
6336;SDS011;3201;49.962;11.618;2023-02-01T12:57:09;3.50;;;1.17;;
6336;SDS011;3201;49.962;11.618;2023-02-01T12:59:38;1.87;;;0.80;;
6336;SDS011;3201;49.962;11.618;2023-02-01T13:02:40;2.67;;;1.00;;
6336;SDS011;3201;49.962;11.618;2023-02-01T13:05:04;1.90;;;0.90;;
6336;SDS011;3201;49.962;11.618;2023-02-01T13:07:39;1.53;;;0.90;;
6336;SDS011;3201;49.962;11.618;2023-02-01T13:11:16;2.53;;;1.10;;
6336;SDS011;3201;49.962;11.618;2023-02-01T13:12:57;4.63;;;1.27;;
6336;SDS011;3201;49.962;11.618;2023-02-01T13:15:28;2.20;;;1.10;;
6336;SDS011;3201;49.962;11.618;2023-02-01T13:17:58;3.80;;;1.17;;
6336;SDS011;3201;49.962;11.618;2023-02-01T13:22:59;5.03;;;1.53;;
6336;SDS011;3201;49.962;11.618;2023-02-01T13:25:31;2.10;;;1.03;;
6336;SDS011;3201;49.962;11.618;2023-02-01T13:28:03;2.20;;;0.93;;
6336;SDS011;3201;49.962;11.618;2023-02-01T13:33:34;2.77;;;1.07;;
6336;SDS011;3201;49.962;11.618;2023-02-01T13:38:54;1.57;;;0.80;;
6336;SDS011;3201;49.962;11.618;2023-02-01T13:42:02;2.03;;;0.90;;
6336;SDS011;3201;49.962;11.618;2023-02-01T13:44:20;2.60;;;1.00;;
6336;SDS011;3201;49.962;11.618;2023-02-01T13:46:52;1.73;;;0.80;;
6336;SDS011;3201;49.962;11.618;2023-02-01T13:49:22;2.20;;;0.70;;
6336;SDS011;3201;49.962;11.618;2023-02-01T13:51:51;2.87;;;1.47;;
6336;SDS011;3201;49.962;11.618;2023-02-01T13:54:50;1.57;;;0.80;;
6336;SDS011;3201;49.962;11.618;2023-02-01T13:57:05;2.20;;;0.87;;
6336;SDS011;3201;49.962;11.618;2023-02-01T13:59:51;5.27;;;1.20;;
6336;SDS011;3201;49.962;11.618;2023-02-01T14:02:50;1.70;;;0.70;;
6336;SDS011;3201;49.962;11.618;2023-02-01T14:05:08;3.20;;;1.20;;
6336;SDS011;3201;49.962;11.618;2023-02-01T14:07:36;4.37;;;1.23;;
6336;SDS011;3201;49.962;11.618;2023-02-01T14:11:01;5.30;;;1.00;;
6336;SDS011;3201;49.962;11.618;2023-02-01T14:13:39;3.23;;;1.33;;
6336;SDS011;3201;49.962;11.618;2023-02-01T14:16:23;4.73;;;1.13;;
6336;SDS011;3201;49.962;11.618;2023-02-01T14:26:24;2.50;;;0.70;;
6336;SDS011;3201;49.962;11.618;2023-02-01T14:31:45;2.80;;;0.87;;
6336;SDS011;3201;49.962;11.618;2023-02-01T14:34:27;1.60;;;1.00;;
6336;SDS011;3201;49.962;11.618;2023-02-01T14:44:55;1.43;;;0.70;;
6336;SDS011;3201;49.962;11.618;2023-02-01T14:50:50;2.60;;;1.10;;
6336;SDS011;3201;49.962;11.618;2023-02-01T14:52:38;2.90;;;1.10;;
6336;SDS011;3201;49.962;11.618;2023-02-01T14:55:11;1.97;;;1.10;;
6336;SDS011;3201;49.962;11.618;2023-02-01T14:57:41;2.73;;;0.90;;
6336;SDS011;3201;49.962;11.618;2023-02-01T15:02:40;1.90;;;1.00;;
6336;SDS011;3201;49.962;11.618;2023-02-01T15:05:16;3.80;;;1.20;;
6336;SDS011;3201;49.962;11.618;2023-02-01T15:07:47;2.93;;;0.97;;
6336;SDS011;3201;49.962;11.618;2023-02-01T15:10:13;3.60;;;1.30;;
6336;SDS011;3201;49.962;11.618;2023-02-01T15:12:40;2.10;;;1.57;;
6336;SDS011;3201;49.962;11.618;2023-02-01T15:15:14;2.53;;;1.03;;
6336;SDS011;3201;49.962;11.618;2023-02-01T15:17:49;1.90;;;1.13;;
6336;SDS011;3201;49.962;11.618;2023-02-01T15:20:22;2.17;;;1.10;;
6336;SDS011;3201;49.962;11.618;2023-02-01T15:22:53;3.53;;;1.53;;
6336;SDS011;3201;49.962;11.618;2023-02-01T15:25:23;2.87;;;1.13;;
6336;SDS011;3201;49.962;11.618;2023-02-01T15:27:50;3.50;;;1.00;;
6336;SDS011;3201;49.962;11.618;2023-02-01T15:30:17;2.70;;;1.17;;
6336;SDS011;3201;49.962;11.618;2023-02-01T15:32:45;2.40;;;1.20;;
6336;SDS011;3201;49.962;11.618;2023-02-01T15:35:43;2.87;;;1.20;;
6336;SDS011;3201;49.962;11.618;2023-02-01T15:38:31;6.40;;;1.43;;
6336;SDS011;3201;49.962;11.618;2023-02-01T15:40:53;1.57;;;1.03;;
6336;SDS011;3201;49.962;11.618;2023-02-01T15:43:19;5.17;;;1.33;;
6336;SDS011;3201;49.962;11.618;2023-02-01T15:45:45;3.90;;;1.13;;
6336;SDS011;3201;49.962;11.618;2023-02-01T15:48:11;5.20;;;1.70;;
6336;SDS011;3201;49.962;11.618;2023-02-01T15:50:41;3.37;;;1.10;;
6336;SDS011;3201;49.962;11.618;2023-02-01T15:53:09;2.93;;;0.80;;
6336;SDS011;3201;49.962;11.618;2023-02-01T15:55:41;4.00;;;0.90;;
6336;SDS011;3201;49.962;11.618;2023-02-01T15:58:08;2.20;;;1.00;;
6336;SDS011;3201;49.962;11.618;2023-02-01T16:00:45;3.00;;;1.10;;
6336;SDS011;3201;49.962;11.618;2023-02-01T16:03:33;4.10;;;1.23;;
6336;SDS011;3201;49.962;11.618;2023-02-01T16:06:02;3.27;;;1.17;;
6336;SDS011;3201;49.962;11.618;2023-02-01T16:08:30;3.63;;;1.13;;
6336;SDS011;3201;49.962;11.618;2023-02-01T16:11:12;6.70;;;1.50;;
6336;SDS011;3201;49.962;11.618;2023-02-01T16:13:44;3.20;;;1.20;;
6336;SDS011;3201;49.962;11.618;2023-02-01T16:16:09;2.50;;;1.20;;
6336;SDS011;3201;49.962;11.618;2023-02-01T16:18:38;3.60;;;1.30;;
6336;SDS011;3201;49.962;11.618;2023-02-01T16:21:04;5.50;;;1.40;;
6336;SDS011;3201;49.962;11.618;2023-02-01T16:23:30;2.80;;;1.50;;
6336;SDS011;3201;49.962;11.618;2023-02-01T16:25:55;1.43;;;0.80;;
6336;SDS011;3201;49.962;11.618;2023-02-01T16:28:20;2.83;;;1.00;;
6336;SDS011;3201;49.962;11.618;2023-02-01T16:30:47;2.63;;;1.10;;
6336;SDS011;3201;49.962;11.618;2023-02-01T16:33:14;2.67;;;0.80;;
6336;SDS011;3201;49.962;11.618;2023-02-01T16:35:43;2.23;;;1.30;;
6336;SDS011;3201;49.962;11.618;2023-02-01T16:38:11;3.10;;;1.20;;
6336;SDS011;3201;49.962;11.618;2023-02-01T16:40:38;5.63;;;1.27;;
6336;SDS011;3201;49.962;11.618;2023-02-01T16:43:10;6.77;;;1.10;;
6336;SDS011;3201;49.962;11.618;2023-02-01T16:45:38;2.40;;;1.10;;
6336;SDS011;3201;49.962;11.618;2023-02-01T16:48:05;3.30;;;1.27;;
6336;SDS011;3201;49.962;11.618;2023-02-01T16:50:30;3.43;;;1.00;;
6336;SDS011;3201;49.962;11.618;2023-02-01T16:52:57;3.70;;;1.30;;
6336;SDS011;3201;49.962;11.618;2023-02-01T16:55:22;3.20;;;0.87;;